Terminal Aerodrome Forecast
Issued by NWS

Home | Current Version | Previous Version | Graphics & Text | Print | Product List | Glossary On
Versions: 1 2 3 4 5 6 7 8 9 10 11 12 13 14 15 16 17 18 19 20
607
FTUS43 KABR 241129 CCA
TAFMBG
TAF COR
KMBG 241129Z 2411/2512 16018G24KT P6SM FEW120 BKN150 WS020/16040KT
     FM241400 15013KT P6SM BKN150
     FM242100 20015KT P6SM FEW250
     FM250500 27019G28KT P6SM BKN035=

USA.gov is the U.S. government's official web portal to all federal, state and local government web resources and services.